sensor_id;sensor_type;location;lat;lon;timestamp;temperature;humidity
78733;DHT22;68056;52.530;5.454;2023-09-19T00:01:12;16.20;66.20
78733;DHT22;68056;52.530;5.454;2023-09-19T00:03:39;16.20;66.20
78733;DHT22;68056;52.530;5.454;2023-09-19T00:06:07;16.20;66.20
78733;DHT22;68056;52.530;5.454;2023-09-19T00:08:35;16.20;66.20
78733;DHT22;68056;52.530;5.454;2023-09-19T00:11:01;16.20;66.10
78733;DHT22;68056;52.530;5.454;2023-09-19T00:13:29;16.10;66.10
78733;DHT22;68056;52.530;5.454;2023-09-19T00:15:56;16.10;66.10
78733;DHT22;68056;52.530;5.454;2023-09-19T00:18:24;16.10;66.10
78733;DHT22;68056;52.530;5.454;2023-09-19T00:20:57;16.10;65.90
78733;DHT22;68056;52.530;5.454;2023-09-19T00:23:23;16.10;65.90
78733;DHT22;68056;52.530;5.454;2023-09-19T00:25:50;16.10;65.80
78733;DHT22;68056;52.530;5.454;2023-09-19T00:28:17;16.20;65.60
78733;DHT22;68056;52.530;5.454;2023-09-19T00:30:44;16.20;65.50
78733;DHT22;68056;52.530;5.454;2023-09-19T00:33:10;16.20;65.50
78733;DHT22;68056;52.530;5.454;2023-09-19T00:35:37;16.20;65.60
78733;DHT22;68056;52.530;5.454;2023-09-19T00:38:02;16.20;65.60
78733;DHT22;68056;52.530;5.454;2023-09-19T00:40:29;16.20;65.70
78733;DHT22;68056;52.530;5.454;2023-09-19T00:42:58;16.20;65.80
78733;DHT22;68056;52.530;5.454;2023-09-19T00:45:27;16.20;65.80
78733;DHT22;68056;52.530;5.454;2023-09-19T00:47:54;16.20;65.80
78733;DHT22;68056;52.530;5.454;2023-09-19T00:50:23;16.30;65.60
78733;DHT22;68056;52.530;5.454;2023-09-19T00:52:53;16.30;65.50
78733;DHT22;68056;52.530;5.454;2023-09-19T00:55:21;16.40;65.40
78733;DHT22;68056;52.530;5.454;2023-09-19T00:57:48;16.40;65.40
78733;DHT22;68056;52.530;5.454;2023-09-19T01:00:15;16.40;65.50
78733;DHT22;68056;52.530;5.454;2023-09-19T01:02:42;16.20;65.70
78733;DHT22;68056;52.530;5.454;2023-09-19T01:05:11;16.10;65.90
78733;DHT22;68056;52.530;5.454;2023-09-19T01:07:38;16.00;66.20
78733;DHT22;68056;52.530;5.454;2023-09-19T01:10:11;15.80;66.40
78733;DHT22;68056;52.530;5.454;2023-09-19T01:23:36;15.40;67.30
78733;DHT22;68056;52.530;5.454;2023-09-19T01:28:51;15.30;67.50
78733;DHT22;68056;52.530;5.454;2023-09-19T01:31:20;15.20;67.50
78733;DHT22;68056;52.530;5.454;2023-09-19T01:34:02;15.20;67.70
78733;DHT22;68056;52.530;5.454;2023-09-19T01:36:35;15.20;67.70
78733;DHT22;68056;52.530;5.454;2023-09-19T01:39:10;15.10;67.60
78733;DHT22;68056;52.530;5.454;2023-09-19T01:44:34;15.10;67.70
78733;DHT22;68056;52.530;5.454;2023-09-19T01:47:06;15.00;67.70
78733;DHT22;68056;52.530;5.454;2023-09-19T01:49:50;15.00;67.80
78733;DHT22;68056;52.530;5.454;2023-09-19T01:52:19;15.00;67.90
78733;DHT22;68056;52.530;5.454;2023-09-19T01:54:52;14.90;67.90
78733;DHT22;68056;52.530;5.454;2023-09-19T01:57:28;14.90;68.00
78733;DHT22;68056;52.530;5.454;2023-09-19T02:00:09;14.90;68.00
78733;DHT22;68056;52.530;5.454;2023-09-19T02:02:38;14.80;68.00
78733;DHT22;68056;52.530;5.454;2023-09-19T02:05:05;14.80;68.10
78733;DHT22;68056;52.530;5.454;2023-09-19T02:07:31;14.80;68.20
78733;DHT22;68056;52.530;5.454;2023-09-19T02:10:00;14.70;68.20
78733;DHT22;68056;52.530;5.454;2023-09-19T02:12:26;14.70;68.30
78733;DHT22;68056;52.530;5.454;2023-09-19T02:14:52;14.70;68.30
78733;DHT22;68056;52.530;5.454;2023-09-19T02:17:17;14.70;68.30
78733;DHT22;68056;52.530;5.454;2023-09-19T02:19:43;14.70;68.30
78733;DHT22;68056;52.530;5.454;2023-09-19T02:22:08;14.70;68.30
78733;DHT22;68056;52.530;5.454;2023-09-19T02:24:37;14.70;68.30
78733;DHT22;68056;52.530;5.454;2023-09-19T02:27:03;14.70;68.30
78733;DHT22;68056;52.530;5.454;2023-09-19T02:29:31;14.70;68.30
78733;DHT22;68056;52.530;5.454;2023-09-19T02:31:59;14.70;68.30
78733;DHT22;68056;52.530;5.454;2023-09-19T02:34:25;14.70;68.30
78733;DHT22;68056;52.530;5.454;2023-09-19T02:36:51;14.70;68.30
78733;DHT22;68056;52.530;5.454;2023-09-19T02:39:19;14.80;68.30
78733;DHT22;68056;52.530;5.454;2023-09-19T02:41:44;14.80;68.30
78733;DHT22;68056;52.530;5.454;2023-09-19T02:44:10;14.80;68.30
78733;DHT22;68056;52.530;5.454;2023-09-19T02:46:35;14.80;68.30
78733;DHT22;68056;52.530;5.454;2023-09-19T02:49:02;14.80;68.30
78733;DHT22;68056;52.530;5.454;2023-09-19T02:51:30;14.80;68.30
78733;DHT22;68056;52.530;5.454;2023-09-19T02:53:56;14.80;68.30
78733;DHT22;68056;52.530;5.454;2023-09-19T02:56:21;14.90;68.40
78733;DHT22;68056;52.530;5.454;2023-09-19T02:58:47;14.90;68.40
78733;DHT22;68056;52.530;5.454;2023-09-19T03:01:13;14.80;68.50
78733;DHT22;68056;52.530;5.454;2023-09-19T03:03:40;14.80;68.60
78733;DHT22;68056;52.530;5.454;2023-09-19T03:06:06;14.80;68.60
78733;DHT22;68056;52.530;5.454;2023-09-19T03:08:34;14.80;68.70
78733;DHT22;68056;52.530;5.454;2023-09-19T03:11:03;14.80;68.70
78733;DHT22;68056;52.530;5.454;2023-09-19T03:13:29;14.70;68.80
78733;DHT22;68056;52.530;5.454;2023-09-19T03:15:56;14.80;68.90
78733;DHT22;68056;52.530;5.454;2023-09-19T03:18:24;14.70;69.00
78733;DHT22;68056;52.530;5.454;2023-09-19T03:20:55;14.70;68.90
78733;DHT22;68056;52.530;5.454;2023-09-19T03:23:21;14.60;69.00
78733;DHT22;68056;52.530;5.454;2023-09-19T03:25:46;14.60;69.10
78733;DHT22;68056;52.530;5.454;2023-09-19T03:28:13;14.60;69.10
78733;DHT22;68056;52.530;5.454;2023-09-19T03:30:40;14.50;69.20
78733;DHT22;68056;52.530;5.454;2023-09-19T03:33:06;14.60;69.30
78733;DHT22;68056;52.530;5.454;2023-09-19T03:35:32;14.60;69.20
78733;DHT22;68056;52.530;5.454;2023-09-19T03:37:58;14.60;69.30
78733;DHT22;68056;52.530;5.454;2023-09-19T03:40:24;14.60;69.30
78733;DHT22;68056;52.530;5.454;2023-09-19T03:42:50;14.60;69.30
78733;DHT22;68056;52.530;5.454;2023-09-19T03:45:16;14.60;69.20
78733;DHT22;68056;52.530;5.454;2023-09-19T03:47:43;14.60;69.20
78733;DHT22;68056;52.530;5.454;2023-09-19T03:50:09;14.70;69.20
78733;DHT22;68056;52.530;5.454;2023-09-19T03:52:37;14.70;69.10
78733;DHT22;68056;52.530;5.454;2023-09-19T03:55:03;14.70;69.10
78733;DHT22;68056;52.530;5.454;2023-09-19T03:57:32;14.70;69.20
78733;DHT22;68056;52.530;5.454;2023-09-19T03:59:57;14.70;69.10
78733;DHT22;68056;52.530;5.454;2023-09-19T04:02:23;14.70;69.20
78733;DHT22;68056;52.530;5.454;2023-09-19T04:04:50;14.70;69.10
78733;DHT22;68056;52.530;5.454;2023-09-19T04:07:16;14.70;69.20
78733;DHT22;68056;52.530;5.454;2023-09-19T04:09:42;14.70;69.20
78733;DHT22;68056;52.530;5.454;2023-09-19T04:12:08;14.70;69.20
78733;DHT22;68056;52.530;5.454;2023-09-19T04:14:37;14.70;69.30
78733;DHT22;68056;52.530;5.454;2023-09-19T04:17:03;14.70;69.30
78733;DHT22;68056;52.530;5.454;2023-09-19T04:19:31;14.70;69.40
78733;DHT22;68056;52.530;5.454;2023-09-19T04:21:57;14.60;69.50
78733;DHT22;68056;52.530;5.454;2023-09-19T04:24:22;14.60;69.50
78733;DHT22;68056;52.530;5.454;2023-09-19T04:26:48;14.60;69.50
78733;DHT22;68056;52.530;5.454;2023-09-19T04:29:14;14.60;69.60
78733;DHT22;68056;52.530;5.454;2023-09-19T04:31:40;14.60;69.60
78733;DHT22;68056;52.530;5.454;2023-09-19T04:34:06;14.50;69.60
78733;DHT22;68056;52.530;5.454;2023-09-19T04:36:32;14.50;69.70
78733;DHT22;68056;52.530;5.454;2023-09-19T04:38:57;14.50;69.80
78733;DHT22;68056;52.530;5.454;2023-09-19T04:41:23;14.50;69.80
78733;DHT22;68056;52.530;5.454;2023-09-19T04:43:49;14.40;69.90
78733;DHT22;68056;52.530;5.454;2023-09-19T04:46:16;14.40;69.90
78733;DHT22;68056;52.530;5.454;2023-09-19T04:48:43;14.40;70.00
78733;DHT22;68056;52.530;5.454;2023-09-19T04:51:08;14.40;70.10
78733;DHT22;68056;52.530;5.454;2023-09-19T04:53:35;14.30;70.00
78733;DHT22;68056;52.530;5.454;2023-09-19T04:56:01;14.30;70.10
78733;DHT22;68056;52.530;5.454;2023-09-19T04:58:29;14.30;70.00
78733;DHT22;68056;52.530;5.454;2023-09-19T05:00:55;14.30;70.10
78733;DHT22;68056;52.530;5.454;2023-09-19T05:03:21;14.30;70.20
78733;DHT22;68056;52.530;5.454;2023-09-19T05:05:47;14.30;70.00
78733;DHT22;68056;52.530;5.454;2023-09-19T05:08:14;14.30;70.10
78733;DHT22;68056;52.530;5.454;2023-09-19T05:10:40;14.40;70.10
78733;DHT22;68056;52.530;5.454;2023-09-19T05:13:06;14.40;70.00
78733;DHT22;68056;52.530;5.454;2023-09-19T05:15:35;14.40;70.00
78733;DHT22;68056;52.530;5.454;2023-09-19T05:18:02;14.40;70.10
78733;DHT22;68056;52.530;5.454;2023-09-19T05:20:28;14.40;70.20
78733;DHT22;68056;52.530;5.454;2023-09-19T05:23:04;14.40;70.10
78733;DHT22;68056;52.530;5.454;2023-09-19T05:25:40;14.40;70.10
78733;DHT22;68056;52.530;5.454;2023-09-19T05:28:06;14.40;70.20
78733;DHT22;68056;52.530;5.454;2023-09-19T05:30:33;14.40;70.10
78733;DHT22;68056;52.530;5.454;2023-09-19T05:32:59;14.50;70.10
78733;DHT22;68056;52.530;5.454;2023-09-19T05:35:25;14.50;70.20
78733;DHT22;68056;52.530;5.454;2023-09-19T05:37:52;14.50;70.10
78733;DHT22;68056;52.530;5.454;2023-09-19T05:40:18;14.50;70.20
78733;DHT22;68056;52.530;5.454;2023-09-19T05:42:45;14.50;70.20
78733;DHT22;68056;52.530;5.454;2023-09-19T05:45:11;14.50;70.30
78733;DHT22;68056;52.530;5.454;2023-09-19T05:47:44;14.50;70.30
78733;DHT22;68056;52.530;5.454;2023-09-19T05:50:11;14.50;70.30
78733;DHT22;68056;52.530;5.454;2023-09-19T05:52:38;14.50;70.30
78733;DHT22;68056;52.530;5.454;2023-09-19T05:55:07;14.50;70.40
78733;DHT22;68056;52.530;5.454;2023-09-19T05:57:37;14.50;70.50
78733;DHT22;68056;52.530;5.454;2023-09-19T06:00:08;14.40;70.60
78733;DHT22;68056;52.530;5.454;2023-09-19T06:02:37;14.40;70.80
78733;DHT22;68056;52.530;5.454;2023-09-19T06:05:05;14.40;70.80
78733;DHT22;68056;52.530;5.454;2023-09-19T06:07:32;14.40;70.90
78733;DHT22;68056;52.530;5.454;2023-09-19T06:10:05;14.40;71.00
78733;DHT22;68056;52.530;5.454;2023-09-19T06:12:32;14.40;71.00
78733;DHT22;68056;52.530;5.454;2023-09-19T06:15:03;14.40;71.10
78733;DHT22;68056;52.530;5.454;2023-09-19T06:17:30;14.40;71.10
78733;DHT22;68056;52.530;5.454;2023-09-19T06:19:56;14.40;71.10
78733;DHT22;68056;52.530;5.454;2023-09-19T06:22:22;14.40;71.10
78733;DHT22;68056;52.530;5.454;2023-09-19T06:24:49;14.50;71.10
78733;DHT22;68056;52.530;5.454;2023-09-19T06:27:15;14.50;71.00
78733;DHT22;68056;52.530;5.454;2023-09-19T06:29:40;14.50;71.00
78733;DHT22;68056;52.530;5.454;2023-09-19T06:32:08;14.50;71.00
78733;DHT22;68056;52.530;5.454;2023-09-19T06:34:34;14.50;71.00
78733;DHT22;68056;52.530;5.454;2023-09-19T06:36:59;14.60;71.10
78733;DHT22;68056;52.530;5.454;2023-09-19T06:39:25;14.60;71.10
78733;DHT22;68056;52.530;5.454;2023-09-19T06:41:52;14.70;71.00
78733;DHT22;68056;52.530;5.454;2023-09-19T06:44:19;14.80;71.00
78733;DHT22;68056;52.530;5.454;2023-09-19T06:46:47;14.90;70.90
78733;DHT22;68056;52.530;5.454;2023-09-19T06:49:19;15.00;70.80
78733;DHT22;68056;52.530;5.454;2023-09-19T06:51:45;15.10;70.70
78733;DHT22;68056;52.530;5.454;2023-09-19T06:54:11;15.30;70.50
78733;DHT22;68056;52.530;5.454;2023-09-19T06:56:36;15.50;70.30
78733;DHT22;68056;52.530;5.454;2023-09-19T06:59:02;15.50;70.10
78733;DHT22;68056;52.530;5.454;2023-09-19T07:01:28;15.50;70.10
78733;DHT22;68056;52.530;5.454;2023-09-19T07:03:54;15.60;70.20
78733;DHT22;68056;52.530;5.454;2023-09-19T07:06:20;15.60;70.10
78733;DHT22;68056;52.530;5.454;2023-09-19T07:08:46;15.70;70.00
78733;DHT22;68056;52.530;5.454;2023-09-19T07:11:11;15.80;69.90
78733;DHT22;68056;52.530;5.454;2023-09-19T07:13:38;15.80;69.90
78733;DHT22;68056;52.530;5.454;2023-09-19T07:16:04;15.80;69.70
78733;DHT22;68056;52.530;5.454;2023-09-19T07:18:30;15.80;69.80
78733;DHT22;68056;52.530;5.454;2023-09-19T07:20:57;15.80;69.80
78733;DHT22;68056;52.530;5.454;2023-09-19T07:23:26;15.80;69.90
78733;DHT22;68056;52.530;5.454;2023-09-19T07:25:52;15.80;69.90
78733;DHT22;68056;52.530;5.454;2023-09-19T07:28:21;15.80;69.90
78733;DHT22;68056;52.530;5.454;2023-09-19T07:30:48;15.90;70.00
78733;DHT22;68056;52.530;5.454;2023-09-19T07:33:14;16.00;70.00
78733;DHT22;68056;52.530;5.454;2023-09-19T07:35:40;16.00;70.00
78733;DHT22;68056;52.530;5.454;2023-09-19T07:38:07;16.00;70.00
78733;DHT22;68056;52.530;5.454;2023-09-19T07:40:33;16.00;70.00
78733;DHT22;68056;52.530;5.454;2023-09-19T07:42:59;16.20;70.00
78733;DHT22;68056;52.530;5.454;2023-09-19T07:45:33;16.40;69.70
78733;DHT22;68056;52.530;5.454;2023-09-19T07:48:00;16.50;69.50
78733;DHT22;68056;52.530;5.454;2023-09-19T07:50:30;16.60;69.30
78733;DHT22;68056;52.530;5.454;2023-09-19T07:52:55;16.70;69.20
78733;DHT22;68056;52.530;5.454;2023-09-19T07:55:22;16.90;69.10
78733;DHT22;68056;52.530;5.454;2023-09-19T07:57:51;17.00;68.80
78733;DHT22;68056;52.530;5.454;2023-09-19T08:00:16;17.20;68.60
78733;DHT22;68056;52.530;5.454;2023-09-19T08:02:43;17.30;68.60
78733;DHT22;68056;52.530;5.454;2023-09-19T08:05:12;17.50;68.40
78733;DHT22;68056;52.530;5.454;2023-09-19T08:07:43;17.70;68.00
78733;DHT22;68056;52.530;5.454;2023-09-19T08:10:10;17.80;67.90
78733;DHT22;68056;52.530;5.454;2023-09-19T08:12:39;17.80;67.80
78733;DHT22;68056;52.530;5.454;2023-09-19T08:15:20;17.80;67.80
78733;DHT22;68056;52.530;5.454;2023-09-19T08:17:47;18.00;67.70
78733;DHT22;68056;52.530;5.454;2023-09-19T08:20:13;18.10;67.70
78733;DHT22;68056;52.530;5.454;2023-09-19T08:22:52;18.30;67.30
78733;DHT22;68056;52.530;5.454;2023-09-19T08:25:20;18.40;67.20
78733;DHT22;68056;52.530;5.454;2023-09-19T08:27:46;18.50;67.10
78733;DHT22;68056;52.530;5.454;2023-09-19T08:30:20;18.70;67.00
78733;DHT22;68056;52.530;5.454;2023-09-19T08:32:58;18.80;66.70
78733;DHT22;68056;52.530;5.454;2023-09-19T08:35:24;19.00;66.50
78733;DHT22;68056;52.530;5.454;2023-09-19T08:37:50;19.20;66.10
78733;DHT22;68056;52.530;5.454;2023-09-19T08:40:16;19.10;65.90
78733;DHT22;68056;52.530;5.454;2023-09-19T08:42:52;19.20;65.90
78733;DHT22;68056;52.530;5.454;2023-09-19T08:45:23;19.20;65.80
78733;DHT22;68056;52.530;5.454;2023-09-19T08:50:31;19.40;65.70
78733;DHT22;68056;52.530;5.454;2023-09-19T08:53:00;19.50;65.60
78733;DHT22;68056;52.530;5.454;2023-09-19T08:55:35;19.70;65.20
78733;DHT22;68056;52.530;5.454;2023-09-19T08:58:03;19.60;65.20
78733;DHT22;68056;52.530;5.454;2023-09-19T09:00:30;19.50;65.10
78733;DHT22;68056;52.530;5.454;2023-09-19T09:02:57;19.50;65.20
78733;DHT22;68056;52.530;5.454;2023-09-19T09:05:24;19.30;65.40
78733;DHT22;68056;52.530;5.454;2023-09-19T09:07:50;19.20;65.60
78733;DHT22;68056;52.530;5.454;2023-09-19T09:10:18;19.10;65.80
78733;DHT22;68056;52.530;5.454;2023-09-19T09:12:47;19.20;65.70
78733;DHT22;68056;52.530;5.454;2023-09-19T09:15:14;19.20;65.60
78733;DHT22;68056;52.530;5.454;2023-09-19T09:17:41;19.30;65.50
78733;DHT22;68056;52.530;5.454;2023-09-19T09:20:08;19.30;65.60
78733;DHT22;68056;52.530;5.454;2023-09-19T09:22:35;19.50;65.40
78733;DHT22;68056;52.530;5.454;2023-09-19T09:25:05;19.60;65.00
78733;DHT22;68056;52.530;5.454;2023-09-19T09:27:31;19.50;65.00
78733;DHT22;68056;52.530;5.454;2023-09-19T09:29:59;19.50;65.10
78733;DHT22;68056;52.530;5.454;2023-09-19T09:32:30;19.50;65.00
78733;DHT22;68056;52.530;5.454;2023-09-19T09:35:00;19.50;65.10
78733;DHT22;68056;52.530;5.454;2023-09-19T09:37:27;19.30;65.40
78733;DHT22;68056;52.530;5.454;2023-09-19T09:39:57;19.30;65.20
78733;DHT22;68056;52.530;5.454;2023-09-19T09:42:34;19.20;65.20
78733;DHT22;68056;52.530;5.454;2023-09-19T09:45:19;19.30;65.10
78733;DHT22;68056;52.530;5.454;2023-09-19T09:47:54;19.40;64.90
78733;DHT22;68056;52.530;5.454;2023-09-19T09:50:33;19.40;64.80
78733;DHT22;68056;52.530;5.454;2023-09-19T09:53:25;19.40;64.60
78733;DHT22;68056;52.530;5.454;2023-09-19T09:56:10;19.20;64.70
78733;DHT22;68056;52.530;5.454;2023-09-19T09:58:44;19.20;64.90
78733;DHT22;68056;52.530;5.454;2023-09-19T10:01:14;19.20;64.90
78733;DHT22;68056;52.530;5.454;2023-09-19T10:03:41;19.40;64.40
78733;DHT22;68056;52.530;5.454;2023-09-19T10:06:15;19.40;64.40
78733;DHT22;68056;52.530;5.454;2023-09-19T10:09:06;19.40;64.40
78733;DHT22;68056;52.530;5.454;2023-09-19T10:11:47;19.30;64.50
78733;DHT22;68056;52.530;5.454;2023-09-19T10:14:17;19.30;64.60
78733;DHT22;68056;52.530;5.454;2023-09-19T10:16:47;19.10;64.60
78733;DHT22;68056;52.530;5.454;2023-09-19T10:19:36;19.10;64.80
78733;DHT22;68056;52.530;5.454;2023-09-19T10:22:04;18.90;64.90
78733;DHT22;68056;52.530;5.454;2023-09-19T10:24:33;18.90;65.00
78733;DHT22;68056;52.530;5.454;2023-09-19T10:26:59;18.90;65.00
78733;DHT22;68056;52.530;5.454;2023-09-19T10:29:28;19.00;64.70
78733;DHT22;68056;52.530;5.454;2023-09-19T10:31:58;19.10;64.60
78733;DHT22;68056;52.530;5.454;2023-09-19T10:34:25;19.10;64.70
78733;DHT22;68056;52.530;5.454;2023-09-19T10:36:52;19.20;64.60
78733;DHT22;68056;52.530;5.454;2023-09-19T10:39:19;19.20;64.50
78733;DHT22;68056;52.530;5.454;2023-09-19T10:41:50;19.20;64.60
78733;DHT22;68056;52.530;5.454;2023-09-19T10:44:25;19.30;64.50
78733;DHT22;68056;52.530;5.454;2023-09-19T10:46:54;19.40;64.30
78733;DHT22;68056;52.530;5.454;2023-09-19T10:49:20;19.50;64.20
78733;DHT22;68056;52.530;5.454;2023-09-19T10:51:48;19.70;64.00
78733;DHT22;68056;52.530;5.454;2023-09-19T10:54:17;19.60;63.70
78733;DHT22;68056;52.530;5.454;2023-09-19T10:56:47;19.60;63.70
78733;DHT22;68056;52.530;5.454;2023-09-19T10:59:18;19.50;63.70
78733;DHT22;68056;52.530;5.454;2023-09-19T11:01:51;19.40;63.80
78733;DHT22;68056;52.530;5.454;2023-09-19T11:04:31;19.30;64.00
78733;DHT22;68056;52.530;5.454;2023-09-19T11:09:50;19.20;64.30
78733;DHT22;68056;52.530;5.454;2023-09-19T11:15:02;19.20;64.50
78733;DHT22;68056;52.530;5.454;2023-09-19T11:17:40;19.20;64.40
78733;DHT22;68056;52.530;5.454;2023-09-19T11:30:51;19.10;64.40
78733;DHT22;68056;52.530;5.454;2023-09-19T11:33:31;19.00;64.40
78733;DHT22;68056;52.530;5.454;2023-09-19T11:36:16;18.90;64.40
78733;DHT22;68056;52.530;5.454;2023-09-19T11:43:48;18.80;64.70
78733;DHT22;68056;52.530;5.454;2023-09-19T11:46:16;18.90;64.60
78733;DHT22;68056;52.530;5.454;2023-09-19T11:48:48;19.00;64.60
78733;DHT22;68056;52.530;5.454;2023-09-19T11:51:19;19.20;64.40
78733;DHT22;68056;52.530;5.454;2023-09-19T11:53:46;19.50;64.10
78733;DHT22;68056;52.530;5.454;2023-09-19T11:56:16;19.70;63.70
78733;DHT22;68056;52.530;5.454;2023-09-19T11:58:45;19.60;63.40
78733;DHT22;68056;52.530;5.454;2023-09-19T12:01:13;19.50;63.40
78733;DHT22;68056;52.530;5.454;2023-09-19T12:03:43;19.50;63.30
78733;DHT22;68056;52.530;5.454;2023-09-19T12:06:14;19.30;63.50
78733;DHT22;68056;52.530;5.454;2023-09-19T12:08:41;19.30;63.70
78733;DHT22;68056;52.530;5.454;2023-09-19T12:11:15;19.30;63.70
78733;DHT22;68056;52.530;5.454;2023-09-19T12:13:45;19.20;63.70
78733;DHT22;68056;52.530;5.454;2023-09-19T12:16:16;19.20;63.70
78733;DHT22;68056;52.530;5.454;2023-09-19T12:18:43;19.20;63.60
78733;DHT22;68056;52.530;5.454;2023-09-19T12:21:30;19.10;63.60
78733;DHT22;68056;52.530;5.454;2023-09-19T12:24:15;19.10;63.80
78733;DHT22;68056;52.530;5.454;2023-09-19T12:26:45;19.00;64.00
78733;DHT22;68056;52.530;5.454;2023-09-19T12:29:20;19.00;64.10
78733;DHT22;68056;52.530;5.454;2023-09-19T12:31:50;19.00;64.20
78733;DHT22;68056;52.530;5.454;2023-09-19T12:34:27;19.00;64.40
78733;DHT22;68056;52.530;5.454;2023-09-19T12:37:12;18.90;64.40
78733;DHT22;68056;52.530;5.454;2023-09-19T12:39:45;18.80;64.60
78733;DHT22;68056;52.530;5.454;2023-09-19T12:42:16;18.80;64.60
78733;DHT22;68056;52.530;5.454;2023-09-19T12:44:49;18.80;64.70
78733;DHT22;68056;52.530;5.454;2023-09-19T12:47:20;18.70;64.70
78733;DHT22;68056;52.530;5.454;2023-09-19T12:52:42;18.70;64.90
78733;DHT22;68056;52.530;5.454;2023-09-19T12:55:22;18.60;65.20
78733;DHT22;68056;52.530;5.454;2023-09-19T12:58:08;18.60;65.40
78733;DHT22;68056;52.530;5.454;2023-09-19T13:00:45;18.60;65.60
78733;DHT22;68056;52.530;5.454;2023-09-19T13:08:17;18.50;65.80
78733;DHT22;68056;52.530;5.454;2023-09-19T13:13:42;18.70;65.70
78733;DHT22;68056;52.530;5.454;2023-09-19T13:16:10;18.90;65.40
78733;DHT22;68056;52.530;5.454;2023-09-19T13:18:48;19.00;65.30
78733;DHT22;68056;52.530;5.454;2023-09-19T13:21:17;19.20;65.00
78733;DHT22;68056;52.530;5.454;2023-09-19T13:23:53;19.40;64.70
78733;DHT22;68056;52.530;5.454;2023-09-19T13:26:27;19.60;64.40
78733;DHT22;68056;52.530;5.454;2023-09-19T13:28:56;19.70;64.30
78733;DHT22;68056;52.530;5.454;2023-09-19T13:31:21;19.70;64.10
78733;DHT22;68056;52.530;5.454;2023-09-19T13:33:48;19.70;64.00
78733;DHT22;68056;52.530;5.454;2023-09-19T13:36:15;19.50;64.10
78733;DHT22;68056;52.530;5.454;2023-09-19T13:38:41;19.50;64.40
78733;DHT22;68056;52.530;5.454;2023-09-19T13:41:10;19.40;64.50
78733;DHT22;68056;52.530;5.454;2023-09-19T13:43:37;19.30;64.60
78733;DHT22;68056;52.530;5.454;2023-09-19T13:46:03;19.30;64.70
78733;DHT22;68056;52.530;5.454;2023-09-19T13:48:29;19.30;64.80
78733;DHT22;68056;52.530;5.454;2023-09-19T13:50:55;19.30;65.00
78733;DHT22;68056;52.530;5.454;2023-09-19T13:53:21;19.20;65.00
78733;DHT22;68056;52.530;5.454;2023-09-19T13:55:46;19.20;65.10
78733;DHT22;68056;52.530;5.454;2023-09-19T13:58:14;19.20;65.10
78733;DHT22;68056;52.530;5.454;2023-09-19T14:00:39;19.10;65.10
78733;DHT22;68056;52.530;5.454;2023-09-19T14:03:05;19.10;65.10
78733;DHT22;68056;52.530;5.454;2023-09-19T14:05:31;19.00;65.20
78733;DHT22;68056;52.530;5.454;2023-09-19T14:07:57;19.00;65.40
78733;DHT22;68056;52.530;5.454;2023-09-19T14:10:23;18.90;65.60
78733;DHT22;68056;52.530;5.454;2023-09-19T14:12:49;18.80;66.00
78733;DHT22;68056;52.530;5.454;2023-09-19T14:15:15;18.70;66.40
78733;DHT22;68056;52.530;5.454;2023-09-19T14:17:40;18.60;66.60
78733;DHT22;68056;52.530;5.454;2023-09-19T14:20:12;18.50;67.00
78733;DHT22;68056;52.530;5.454;2023-09-19T14:22:38;18.50;67.20
78733;DHT22;68056;52.530;5.454;2023-09-19T14:25:04;18.40;67.20
78733;DHT22;68056;52.530;5.454;2023-09-19T14:27:34;18.40;67.40
78733;DHT22;68056;52.530;5.454;2023-09-19T14:30:00;18.30;67.50
78733;DHT22;68056;52.530;5.454;2023-09-19T14:32:25;18.30;67.60
78733;DHT22;68056;52.530;5.454;2023-09-19T14:34:51;18.30;67.70
78733;DHT22;68056;52.530;5.454;2023-09-19T14:37:18;18.20;67.80
78733;DHT22;68056;52.530;5.454;2023-09-19T14:39:43;18.20;68.00
78733;DHT22;68056;52.530;5.454;2023-09-19T14:42:11;18.20;68.20
78733;DHT22;68056;52.530;5.454;2023-09-19T14:44:40;18.20;68.20
78733;DHT22;68056;52.530;5.454;2023-09-19T14:47:05;18.10;68.20
78733;DHT22;68056;52.530;5.454;2023-09-19T14:49:35;18.10;68.30
78733;DHT22;68056;52.530;5.454;2023-09-19T14:52:03;18.20;68.20
78733;DHT22;68056;52.530;5.454;2023-09-19T14:54:30;18.20;68.10
78733;DHT22;68056;52.530;5.454;2023-09-19T14:56:56;18.20;68.00
78733;DHT22;68056;52.530;5.454;2023-09-19T14:59:31;18.20;68.00
78733;DHT22;68056;52.530;5.454;2023-09-19T15:01:57;18.20;68.10
78733;DHT22;68056;52.530;5.454;2023-09-19T15:04:23;18.10;68.20
78733;DHT22;68056;52.530;5.454;2023-09-19T15:06:49;18.10;68.20
78733;DHT22;68056;52.530;5.454;2023-09-19T15:09:16;18.00;68.30
78733;DHT22;68056;52.530;5.454;2023-09-19T15:11:44;18.00;68.50
78733;DHT22;68056;52.530;5.454;2023-09-19T15:14:10;18.00;68.60
78733;DHT22;68056;52.530;5.454;2023-09-19T15:16:35;17.90;68.70
78733;DHT22;68056;52.530;5.454;2023-09-19T15:19:01;17.90;68.70
78733;DHT22;68056;52.530;5.454;2023-09-19T15:21:26;17.80;69.00
78733;DHT22;68056;52.530;5.454;2023-09-19T15:23:52;17.80;69.20
78733;DHT22;68056;52.530;5.454;2023-09-19T15:26:18;17.60;69.40
78733;DHT22;68056;52.530;5.454;2023-09-19T15:28:46;17.60;69.50
78733;DHT22;68056;52.530;5.454;2023-09-19T15:31:13;17.60;69.70
78733;DHT22;68056;52.530;5.454;2023-09-19T15:33:39;17.60;69.70
78733;DHT22;68056;52.530;5.454;2023-09-19T15:36:08;17.60;69.70
78733;DHT22;68056;52.530;5.454;2023-09-19T15:41:34;17.50;70.00
78733;DHT22;68056;52.530;5.454;2023-09-19T15:44:01;17.50;70.00
78733;DHT22;68056;52.530;5.454;2023-09-19T15:46:28;17.50;70.20
78733;DHT22;68056;52.530;5.454;2023-09-19T15:48:55;17.50;70.00
78733;DHT22;68056;52.530;5.454;2023-09-19T15:51:21;17.50;70.10
78733;DHT22;68056;52.530;5.454;2023-09-19T15:53:48;17.50;70.20
78733;DHT22;68056;52.530;5.454;2023-09-19T15:56:14;17.50;70.20
78733;DHT22;68056;52.530;5.454;2023-09-19T15:58:40;17.50;70.20
78733;DHT22;68056;52.530;5.454;2023-09-19T16:01:07;17.50;70.30
78733;DHT22;68056;52.530;5.454;2023-09-19T16:03:41;17.50;70.50
78733;DHT22;68056;52.530;5.454;2023-09-19T16:06:18;17.40;70.60
78733;DHT22;68056;52.530;5.454;2023-09-19T16:08:46;17.40;70.70
78733;DHT22;68056;52.530;5.454;2023-09-19T16:11:15;17.30;71.00
78733;DHT22;68056;52.530;5.454;2023-09-19T16:13:41;17.20;71.20
78733;DHT22;68056;52.530;5.454;2023-09-19T16:16:11;17.20;71.30
78733;DHT22;68056;52.530;5.454;2023-09-19T16:19:00;17.20;71.30
78733;DHT22;68056;52.530;5.454;2023-09-19T16:21:31;17.20;71.30
78733;DHT22;68056;52.530;5.454;2023-09-19T16:23:58;17.20;71.20
78733;DHT22;68056;52.530;5.454;2023-09-19T16:26:25;17.20;71.20
78733;DHT22;68056;52.530;5.454;2023-09-19T16:28:53;17.20;71.20
78733;DHT22;68056;52.530;5.454;2023-09-19T16:31:19;17.30;71.10
78733;DHT22;68056;52.530;5.454;2023-09-19T16:33:46;17.40;71.20